WetterOnline ( https://www.wetteronline.ch )

Wetter aktuell Giessen

Aktuelles Wetter: Giessen (195m)

6-stündlich | Neueste Meldungen
Ortszeit Temperatur Wetter
Mi, 24.07. 2:00 16.1° C wolkig
Di, 23.07. 20:00 22.2° C leicht bewölkt
Di, 23.07. 14:00 23.8° C leichter Regen
Di, 23.07. 8:00 17.2° C wolkenlos
Di, 23.07. 2:00 17.3° C bewölkt
Mo, 22.07. 20:00 23.6° C wolkig
Mo, 22.07. 14:00 24.9° C Dunst
Mo, 22.07. 8:00 19.4° C leicht bewölkt
Ortszeit Temperatur Wetter
Mi, 24.07. 2:30 15.9° C wolkig
Mi, 24.07. 2:20 15.9° C wolkig
Mi, 24.07. 2:10 15.9° C leicht bewölkt
Mi, 24.07. 2:00 16.1° C wolkig
Mi, 24.07. 1:50 16.1° C wolkig
Mi, 24.07. 1:40 16.2° C bewölkt
Mi, 24.07. 1:30 16.5° C wolkig
Mi, 24.07. 1:00 17.0° C leicht bewölkt
Mi, 24.07. 0:30 17.7° C bewölkt
Mi, 24.07. 0:00 17.7° C leicht bewölkt
Di, 23.07. 23:30 18.1° C leicht bewölkt
Ortszeit Relative Feuchte Sichtweite
Mi, 24.07. 2:00 85% 35 km
Di, 23.07. 20:00 62% 60 km
Di, 23.07. 14:00 59% 50 km
Di, 23.07. 8:00 79% 40 km
Di, 23.07. 2:00 85% 35 km
Mo, 22.07. 20:00 52% 40 km
Mo, 22.07. 14:00 47% 3.1 km
Mo, 22.07. 8:00 78% 45 km
Ortszeit Relative Feuchte Sichtweite
Mi, 24.07. 2:30 87% 28 km
Mi, 24.07. 2:20 87% -
Mi, 24.07. 2:10 86% -
Mi, 24.07. 2:00 85% 35 km
Mi, 24.07. 1:50 85% -
Mi, 24.07. 1:40 85% -
Mi, 24.07. 1:30 84% 35 km
Mi, 24.07. 1:00 80% 40 km
Mi, 24.07. 0:30 76% 45 km
Mi, 24.07. 0:00 75% 55 km
Di, 23.07. 23:30 74% 50 km
Ortszeit Niederschlagsmenge Niederschlagsart
Mi, 24.07. 2:00 0.0 l/m2 in 6 Std. -
Di, 23.07. 20:00 0.1 l/m2 in 12 Std. Regen
Di, 23.07. 14:00 0.1 l/m2 in 6 Std. Regen
Di, 23.07. 8:00 0.0 l/m2 in 12 Std. -
Di, 23.07. 2:00 0.0 l/m2 in 6 Std. -
Mo, 22.07. 20:00 0.1 l/m2 in 12 Std. Sprühregen
Mo, 22.07. 14:00 0.0 l/m2 in 6 Std. -
Mo, 22.07. 8:00 0.1 l/m2 in 12 Std. Regen
Ortszeit Niederschlagsmenge Niederschlagsart
Mi, 24.07. 2:30 0.0 l/m2 in 30 Min -
Mi, 24.07. 2:20 keine Meldung -
Mi, 24.07. 2:10 keine Meldung -
Mi, 24.07. 2:00 0.0 l/m2 in 1 Std. -
Mi, 24.07. 1:50 keine Meldung -
Mi, 24.07. 1:40 keine Meldung -
Mi, 24.07. 1:30 0.0 l/m2 in 30 Min -
Mi, 24.07. 1:00 0.0 l/m2 in 1 Std. -
Mi, 24.07. 0:30 0.0 l/m2 in 30 Min -
Mi, 24.07. 0:00 0.0 l/m2 in 1 Std. -
Di, 23.07. 23:30 0.0 l/m2 in 30 Min -
Ortszeit Stärke Spitze Richtung
km/h Bft. km/h Grad Sektor
Mi, 24.07. 2:00 9 2 28 220° SW
Di, 23.07. 20:00 18 3 47 280° W
Di, 23.07. 14:00 22 4 37 210° SW
Di, 23.07. 8:00 7 2 14 220° SW
Di, 23.07. 2:00 7 2 14 230° SW
Mo, 22.07. 20:00 11 2 36 250° W
Mo, 22.07. 14:00 14 3 32 270° W
Mo, 22.07. 8:00 9 2 17 250° W
Ortszeit Stärke Spitze Richtung
km/h Bft. km/h Grad Sektor
Mi, 24.07. 2:30 7 2 11 210° SW
Mi, 24.07. 2:20 7 2 - 210° SW
Mi, 24.07. 2:10 7 2 - 220° SW
Mi, 24.07. 2:00 9 2 15 220° SW
Mi, 24.07. 1:50 9 2 - 220° SW
Mi, 24.07. 1:40 9 2 - 230° SW
Mi, 24.07. 1:30 11 2 14 210° SW
Mi, 24.07. 1:00 7 2 25 280° W
Mi, 24.07. 0:30 11 2 25 260° W
Mi, 24.07. 0:00 17 3 26 260° W
Di, 23.07. 23:30 17 3 24 260° W
Ortszeit Untergrenze Bedeckung Gattung
total tief tief mittel hoch
Mi, 24.07. 2:00 570 m 6/8 6/8 - - -
Di, 23.07. 20:00 900 m 2/8 1/8 - - -
Di, 23.07. 14:00 1260 m 7/8 7/8 - - -
Di, 23.07. 8:00 - 0/8 0/8 - - -
Di, 23.07. 2:00 1800 m 7/8 7/8 - - -
Mo, 22.07. 20:00 1800 m 5/8 5/8 - - -
Mo, 22.07. 14:00 1440 m 1/8 1/8 - - -
Mo, 22.07. 8:00 2100 m 3/8 3/8 - - -
Ortszeit Bedeckungsgrad in Achtel und Wolkenuntergrenze
Mi, 24.07. 2:30 5(510m)
Mi, 24.07. 2:20 5(510m)
Mi, 24.07. 2:10 3
Mi, 24.07. 2:00 1(570m) 3(720m) 6(1800m)
Mi, 24.07. 1:50 1(570m) 3(720m) 6(1800m)
Mi, 24.07. 1:40 7
Mi, 24.07. 1:30 5(1800m) 6(2100m)
Mi, 24.07. 1:00 4(2400m)
Mi, 24.07. 0:30 7(2100m)
Mi, 24.07. 0:00 2(2400m)
Di, 23.07. 23:30 2(3900m)
Ortszeit Luftdruck NN (hPa) Tendenz (hPa in 3 Std.)
Mi, 24.07. 2:00 1019 + 0,9
Di, 23.07. 20:00 1016 + 0,1
Di, 23.07. 14:00 1016 - 1,2
Di, 23.07. 8:00 1019 + 0,1
Di, 23.07. 2:00 1019 + 0,4
Mo, 22.07. 20:00 1017 + 0,4
Mo, 22.07. 14:00 1016 + 0,5
Mo, 22.07. 8:00 1015 + 1,8
Ortszeit Luftdruck NN (hPa) Tendenz (hPa in 3 Std.)
Mi, 24.07. 2:30 1018 + 0,6
Mi, 24.07. 2:20 1018 keine Meldung
Mi, 24.07. 2:10 1018 keine Meldung
Mi, 24.07. 2:00 1019 + 0,9
Mi, 24.07. 1:50 1019 keine Meldung
Mi, 24.07. 1:40 1019 keine Meldung
Mi, 24.07. 1:30 1019 + 1,0
Mi, 24.07. 1:00 1018 + 1,0
Mi, 24.07. 0:30 1018 + 1,3
Mi, 24.07. 0:00 1018 + 1,1
Di, 23.07. 23:30 1018 + 1,4
Ortszeit Schneehöhe (cm)
Mi, 24.07. 2:00 0
Di, 23.07. 20:00 0
Di, 23.07. 14:00 0
Di, 23.07. 8:00 0
Di, 23.07. 2:00 0
Mo, 22.07. 20:00 0
Mo, 22.07. 14:00 0
Mo, 22.07. 8:00 0
Ortszeit Schneehöhe (cm)
Mi, 24.07. 2:30 0
Mi, 24.07. 2:20 0
Mi, 24.07. 2:10 -
Mi, 24.07. 2:00 0
Mi, 24.07. 1:50 0
Mi, 24.07. 1:40 -
Mi, 24.07. 1:30 0
Mi, 24.07. 1:00 0
Mi, 24.07. 0:30 0
Mi, 24.07. 0:00 0
Di, 23.07. 23:30 0
Link zu dieser Seite / Seite empfehlen

Das Wetter in ...